»·PEaware :: DAL416 KATL-KJFK

DAL416 :: KATL-KJFK

FLIGHT INFORMATION

Flight Status: Arrived
Operator:
Delta Air Lines
More flights by this operator :: More flights under this callsign
Pilot: Anonymous 35349 (35349)
Aircraft: AIRBUS A330-300
(A333)
More flights by this aircraft type
Origin: KATL Hartsfield-Jackson Atlanta
United States
Destination: KJFK Kennedy Intl
United States
More flights between these airports :: More routes between these airports
Route: PHIIL2 GRD Q64 TYI J209 ORF J121 SIE CAMRN4
File this flight plan on PilotEdge
Remarks:
Altitude:
(Current/Filed)
31,000ft
Speed:
(Current/Filed)
330kts
Departed: 11-Jul-21 04:12 AM
Arrived: 11-Jul-21 05:58 AM
Distance/Time
Traveled:
660nm/1:46
Distance/Time
To Go:
Arrived

Flight Plot

Page will automatically refresh every two minutes.

Flight plan parsing failed; only flown route is shown


Map Options




Map Legend


Flown Route
Filed Route
Departure Airport
Arrival Airport
Navaid (VOR, NDB)
Fix

Horizontal Profiles

Position Reports

Time Latitude Longitude Heading Altitude Ground
Speed
11-Jul-21 04:06 33.637913 -84.441955 270 1040ft 0kts
11-Jul-21 04:07 33.637913 -84.441955 270 1040ft 0kts
11-Jul-21 04:08 33.637910 -84.441402 270 1040ft 2kts
11-Jul-21 04:09 33.636718 -84.441465 217 1040ft 8kts
11-Jul-21 04:10 33.635739 -84.446908 264 1040ft 20kts
11-Jul-21 04:11 33.634769 -84.437158 89 1040ft 120kts
11-Jul-21 04:12 33.642179 -84.375459 61 2308ft 269kts
11-Jul-21 04:13 33.670202 -84.283295 70 5896ft 324kts
11-Jul-21 04:14 33.684599 -84.193368 77 7559ft 284kts
11-Jul-21 04:15 33.712661 -84.095596 68 9481ft 296kts
11-Jul-21 04:16 33.722914 -83.995152 99 10229ft 310kts
11-Jul-21 04:17 33.703377 -83.880773 105 11304ft 403kts
11-Jul-21 04:18 33.678467 -83.752183 105 12292ft 389kts
11-Jul-21 04:19 33.661270 -83.622248 88 13317ft 403kts
11-Jul-21 04:20 33.680905 -83.488695 77 14367ft 409kts
11-Jul-21 04:21 33.707878 -83.355164 77 15369ft 413kts
11-Jul-21 04:22 33.734053 -83.219769 78 16372ft 418kts
11-Jul-21 04:23 33.774772 -83.088513 61 17385ft 426kts
11-Jul-21 04:24 33.837335 -82.966023 57 18393ft 432kts
11-Jul-21 04:25 33.902407 -82.843439 58 19394ft 438kts
11-Jul-21 04:26 33.967382 -82.718136 58 20397ft 445kts
11-Jul-21 04:27 34.032590 -82.589887 59 21403ft 452kts
11-Jul-21 04:28 34.098505 -82.459232 59 22406ft 459kts
11-Jul-21 04:29 34.164936 -82.327006 59 23401ft 447kts
11-Jul-21 04:30 34.220517 -82.216104 59 24310ft 325kts
11-Jul-21 04:31 34.258741 -82.143360 58 24737ft 191kts
11-Jul-21 04:32 34.292812 -82.081682 56 20866ft 169kts
11-Jul-21 04:33 34.312332 -82.114838 275 10611ft 319kts
11-Jul-21 04:34 34.302633 -82.204787 229 12295ft 265kts
11-Jul-21 04:35 34.221413 -82.180606 125 12369ft 410kts
11-Jul-21 04:36 34.234051 -82.059159 43 13234ft 398kts
11-Jul-21 04:37 34.338128 -82.047023 327 14260ft 400kts
11-Jul-21 04:38 34.387814 -82.161014 285 15295ft 398kts
11-Jul-21 04:39 34.478093 -82.216650 18 16295ft 421kts
11-Jul-21 04:40 34.542826 -82.102959 73 17406ft 429kts
11-Jul-21 04:41 34.571630 -81.962414 77 18410ft 432kts
11-Jul-21 04:42 34.598621 -81.819219 77 19414ft 438kts
11-Jul-21 04:43 34.626421 -81.674463 77 20414ft 444kts
11-Jul-21 04:44 34.660018 -81.528841 71 21471ft 451kts
11-Jul-21 04:45 34.710298 -81.387616 64 22517ft 461kts
11-Jul-21 04:46 34.772746 -81.249954 60 23524ft 468kts
11-Jul-21 04:47 34.841401 -81.114182 58 24525ft 475kts
11-Jul-21 04:48 34.913799 -80.977505 57 24997ft 487kts
11-Jul-21 04:49 34.987873 -80.840336 57 24990ft 483kts
11-Jul-21 04:50 35.062044 -80.703826 57 24984ft 484kts
11-Jul-21 04:51 35.136652 -80.566602 57 24985ft 484kts
11-Jul-21 04:52 35.201372 -80.447377 57 24995ft 484kts
11-Jul-21 04:58 35.653872 -79.603685 57 25016ft 483kts
11-Jul-21 04:59 35.727077 -79.465288 57 25000ft 483kts
11-Jul-21 05:00 35.800082 -79.326724 58 25117ft 481kts
11-Jul-21 05:01 35.872752 -79.188240 58 25603ft 478kts
11-Jul-21 05:02 35.945020 -79.049953 58 26600ft 484kts
11-Jul-21 05:03 36.019096 -78.907588 58 27606ft 497kts
11-Jul-21 05:04 36.093670 -78.763742 58 28604ft 501kts
11-Jul-21 05:05 36.169078 -78.617672 58 29605ft 506kts
11-Jul-21 05:06 36.245017 -78.469947 58 30605ft 511kts
11-Jul-21 05:07 36.321711 -78.320077 58 31165ft 520kts
11-Jul-21 05:08 36.399432 -78.167524 58 31173ft 526kts
11-Jul-21 05:09 36.477495 -78.013635 58 31188ft 527kts
11-Jul-21 05:10 36.555796 -77.858572 59 31188ft 528kts
11-Jul-21 05:11 36.633527 -77.703907 59 31164ft 529kts
11-Jul-21 05:12 36.711452 -77.548129 59 31168ft 529kts
11-Jul-21 05:13 36.789105 -77.392156 59 31166ft 529kts
11-Jul-21 05:14 36.866529 -77.235912 59 31159ft 529kts
11-Jul-21 05:15 36.943646 -77.079556 59 31151ft 529kts
11-Jul-21 05:16 37.020744 -76.922498 59 31149ft 529kts
11-Jul-21 05:17 37.097575 -76.765237 59 31154ft 530kts
11-Jul-21 05:18 37.174171 -76.607702 60 31135ft 530kts
11-Jul-21 05:19 37.250666 -76.449614 60 31149ft 530kts
11-Jul-21 05:20 37.327195 -76.290674 60 31153ft 530kts
11-Jul-21 05:21 37.403054 -76.132337 60 31152ft 530kts
11-Jul-21 05:22 37.479070 -75.972811 60 31151ft 531kts
11-Jul-21 05:23 37.564909 -75.822672 41 31152ft 533kts
11-Jul-21 05:24 37.690931 -75.724020 27 31150ft 535kts
11-Jul-21 05:25 37.823925 -75.639839 28 31162ft 535kts
11-Jul-21 05:26 37.953219 -75.545271 31 30627ft 541kts
11-Jul-21 05:27 38.080610 -75.448456 28 29625ft 521kts
11-Jul-21 05:28 38.208590 -75.365567 25 28626ft 513kts
11-Jul-21 05:29 38.336034 -75.286260 25 27281ft 508kts
11-Jul-21 05:30 38.461100 -75.207767 25 25680ft 494kts
11-Jul-21 05:31 38.582538 -75.130566 24 24078ft 482kts
11-Jul-21 05:32 38.701028 -75.054689 24 22481ft 471kts
11-Jul-21 05:33 38.816990 -74.980232 24 20880ft 461kts
11-Jul-21 05:34 38.930431 -74.907106 24 19277ft 451kts
11-Jul-21 05:35 39.030625 -74.842276 24 17831ft 442kts
11-Jul-21 05:36 39.143501 -74.751093 36 16119ft 434kts
11-Jul-21 05:37 39.234909 -74.652438 38 14602ft 424kts
11-Jul-21 05:38 39.322713 -74.555109 38 13463ft 410kts
11-Jul-21 05:39 39.409130 -74.460469 37 12469ft 405kts
11-Jul-21 05:40 39.494444 -74.367426 37 11465ft 397kts
11-Jul-21 05:41 39.577778 -74.276159 37 10468ft 389kts
11-Jul-21 05:42 39.659296 -74.186437 38 9606ft 381kts
11-Jul-21 05:43 39.739280 -74.098282 38 8600ft 372kts
11-Jul-21 05:44 39.817656 -74.012058 37 7597ft 365kts
11-Jul-21 05:45 39.901953 -73.942012 28 6609ft 357kts
11-Jul-21 05:46 39.965364 -73.897182 27 5874ft 346kts
11-Jul-21 05:47 40.073896 -73.885225 344 4607ft 302kts
11-Jul-21 05:48 40.153128 -73.911707 347 3600ft 290kts
11-Jul-21 05:49 40.231492 -73.931352 351 3005ft 283kts
11-Jul-21 05:50 40.303747 -73.941795 357 2100ft 227kts
11-Jul-21 05:51 40.367468 -73.943056 2 2002ft 231kts
11-Jul-21 05:52 40.429431 -73.928989 21 2012ft 227kts
11-Jul-21 05:53 40.487290 -73.890642 31 1581ft 236kts
11-Jul-21 05:54 40.541444 -73.848964 30 1027ft 230kts
11-Jul-21 05:55 40.599165 -73.803164 30 557ft 223kts
11-Jul-21 05:56 40.638797 -73.772779 14 27ft 71kts
11-Jul-21 05:57 40.644230 -73.770787 296 27ft 0kts

Navigation Log

Ident Type
Flight plan parsing failed, navigation log unavailable